createdAt,value
2022-09-03T00:00:35.318Z,1.50
2022-09-03T00:03:15.838Z,1.95
2022-09-03T00:05:50.156Z,1.75
2022-09-03T00:08:25.395Z,1.60
2022-09-03T00:11:01.093Z,1.95
2022-09-03T00:13:35.353Z,2.47
2022-09-03T00:16:11.635Z,1.67
2022-09-03T00:18:50.401Z,1.95
2022-09-03T00:21:27.311Z,1.88
2022-09-03T00:23:59.488Z,1.92
2022-09-03T00:26:35.668Z,2.22
2022-09-03T00:29:11.732Z,1.50
2022-09-03T00:31:45.001Z,2.10
2022-09-03T00:34:18.511Z,1.42
2022-09-03T00:36:48.727Z,1.55
2022-09-03T00:39:20.884Z,1.30
2022-09-03T00:42:11.955Z,1.30
2022-09-03T00:44:55.469Z,1.13
2022-09-03T00:47:31.768Z,1.20
2022-09-03T00:50:09.764Z,0.95
2022-09-03T00:52:52.856Z,1.23
2022-09-03T00:55:32.295Z,0.88
2022-09-03T00:58:32.626Z,1.17
2022-09-03T01:01:06.990Z,1.75
2022-09-03T01:03:45.694Z,0.90
2022-09-03T01:06:21.145Z,1.15
2022-09-03T01:09:05.143Z,0.90
2022-09-03T01:11:47.465Z,0.68
2022-09-03T01:14:31.650Z,1.25
2022-09-03T01:17:07.194Z,1.23
2022-09-03T01:20:00.778Z,0.70
2022-09-03T01:23:05.204Z,0.80
2022-09-03T01:25:48.044Z,0.88
2022-09-03T01:28:35.185Z,0.80
2022-09-03T01:31:14.365Z,0.93
2022-09-03T01:33:51.973Z,0.80
2022-09-03T01:36:33.153Z,0.70
2022-09-03T01:39:05.140Z,0.80
2022-09-03T01:42:03.461Z,1.10
2022-09-03T01:44:45.020Z,0.73
2022-09-03T01:47:24.253Z,1.00
2022-09-03T01:50:00.156Z,0.75
2022-09-03T01:52:44.709Z,0.90
2022-09-03T01:55:27.069Z,0.80
2022-09-03T01:58:00.389Z,0.75
2022-09-03T02:00:34.657Z,0.80
2022-09-03T02:03:07.355Z,0.68
2022-09-03T02:05:37.816Z,0.70
2022-09-03T02:08:09.817Z,0.77
2022-09-03T02:10:43.689Z,0.93
2022-09-03T02:13:16.598Z,0.73
2022-09-03T02:15:50.402Z,0.93
2022-09-03T02:18:25.494Z,1.08
2022-09-03T02:20:56.576Z,1.20
2022-09-03T02:23:28.352Z,1.30
2022-09-03T02:26:00.454Z,1.10
2022-09-03T02:28:32.292Z,1.05
2022-09-03T02:31:03.311Z,1.38
2022-09-03T02:33:34.362Z,1.38
2022-09-03T02:36:07.232Z,1.30
2022-09-03T02:38:37.016Z,0.93
2022-09-03T02:41:06.762Z,1.20
2022-09-03T02:43:43.212Z,1.10
2022-09-03T02:46:19.923Z,0.90
2022-09-03T02:48:49.463Z,0.77
2022-09-03T02:51:19.704Z,1.35
2022-09-03T02:53:49.034Z,1.05
2022-09-03T02:56:20.865Z,0.80
2022-09-03T02:58:50.198Z,1.15
2022-09-03T03:01:24.130Z,0.98
2022-09-03T03:03:54.561Z,0.90
2022-09-03T03:06:24.231Z,0.93
2022-09-03T03:08:56.629Z,0.77
2022-09-03T03:11:27.714Z,0.90
2022-09-03T03:13:57.171Z,0.68
2022-09-03T03:16:28.293Z,1.10
2022-09-03T03:21:28.133Z,1.10
2022-09-03T03:23:57.702Z,0.98
2022-09-03T03:26:27.127Z,0.98
2022-09-03T03:31:29.718Z,0.90
2022-09-03T03:34:02.354Z,0.85
2022-09-03T03:36:33.459Z,0.88
2022-09-03T03:39:04.060Z,1.00
2022-09-03T03:41:34.765Z,2.10
2022-09-03T03:44:06.705Z,1.08
2022-09-03T03:46:39.179Z,0.98
2022-09-03T03:49:12.085Z,0.90
2022-09-03T03:51:41.972Z,0.88
2022-09-03T03:54:12.066Z,1.20
2022-09-03T03:56:55.754Z,0.70
2022-09-03T03:59:26.085Z,0.90
2022-09-03T04:01:58.632Z,0.70
2022-09-03T04:04:28.761Z,0.60
2022-09-03T04:06:58.286Z,0.80
2022-09-03T04:09:27.769Z,0.45
2022-09-03T04:11:58.426Z,0.70
2022-09-03T04:14:28.009Z,0.68
2022-09-03T04:16:59.814Z,0.60
2022-09-03T04:19:30.620Z,0.82
2022-09-03T04:22:00.337Z,0.80
2022-09-03T04:24:30.068Z,0.85
2022-09-03T04:26:59.528Z,0.70
2022-09-03T04:29:31.627Z,0.75
2022-09-03T04:32:21.323Z,0.60
2022-09-03T04:34:51.338Z,0.65
2022-09-03T04:37:21.042Z,1.13
2022-09-03T04:39:50.583Z,0.77
2022-09-03T04:42:20.468Z,0.80
2022-09-03T04:44:49.909Z,0.77
2022-09-03T04:47:21.154Z,0.98
2022-09-03T04:49:50.786Z,0.90
2022-09-03T04:52:20.970Z,1.40
2022-09-03T04:54:50.468Z,1.70
2022-09-03T04:57:20.589Z,1.27
2022-09-03T04:59:49.954Z,1.55
2022-09-03T05:02:21.856Z,1.90
2022-09-03T05:04:52.562Z,2.30
2022-09-03T05:07:22.105Z,2.10
2022-09-03T05:09:51.732Z,1.65
2022-09-03T05:12:23.042Z,1.98
2022-09-03T05:14:52.451Z,1.98
2022-09-03T05:17:24.045Z,2.07
2022-09-03T05:22:23.274Z,2.20
2022-09-03T05:24:52.734Z,2.05
2022-09-03T05:27:22.026Z,2.33
2022-09-03T05:29:51.651Z,1.88
2022-09-03T05:32:21.094Z,2.15
2022-09-03T05:34:52.110Z,1.80
2022-09-03T05:37:23.521Z,2.42
2022-09-03T05:42:22.281Z,1.20
2022-09-03T05:44:52.921Z,0.73
2022-09-03T05:47:22.336Z,0.80
2022-09-03T05:49:53.125Z,0.73
2022-09-03T05:52:23.813Z,1.35
2022-09-03T05:54:53.146Z,0.93
2022-09-03T05:57:22.609Z,0.90
2022-09-03T05:59:52.930Z,0.60
2022-09-03T06:02:22.332Z,0.80
2022-09-03T06:04:53.530Z,0.35
2022-09-03T06:07:23.485Z,0.60
2022-09-03T06:09:52.810Z,0.30
2022-09-03T06:12:22.165Z,0.50
2022-09-03T06:14:52.467Z,0.30
2022-09-03T06:17:21.947Z,0.68
2022-09-03T06:19:52.897Z,1.40
2022-09-03T06:22:25.257Z,0.35
2022-09-03T06:24:56.202Z,0.55
2022-09-03T06:27:26.236Z,1.33
2022-09-03T06:29:57.558Z,1.08
2022-09-03T06:32:29.624Z,0.43
2022-09-03T06:35:00.581Z,0.40
2022-09-03T06:37:30.503Z,0.40
2022-09-03T06:39:59.928Z,0.30
2022-09-03T06:42:30.137Z,0.63
2022-09-03T06:47:30.166Z,0.63
2022-09-03T06:50:02.300Z,0.90
2022-09-03T06:52:32.314Z,0.30
2022-09-03T06:55:01.636Z,0.50
2022-09-03T06:57:31.197Z,0.47
2022-09-03T07:00:03.249Z,0.60
2022-09-03T07:02:33.980Z,0.40
2022-09-03T07:05:05.709Z,0.47
2022-09-03T07:07:38.992Z,0.60
2022-09-03T07:12:39.617Z,0.30
2022-09-03T07:15:10.226Z,0.40
2022-09-03T07:17:40.196Z,0.70
2022-09-03T07:20:11.845Z,0.30
2022-09-03T07:22:41.801Z,0.40
2022-09-03T07:25:11.848Z,0.80
2022-09-03T07:27:41.300Z,0.40
2022-09-03T07:30:12.677Z,0.93
2022-09-03T07:32:42.356Z,0.52
2022-09-03T07:35:14.096Z,0.38
2022-09-03T07:37:44.204Z,0.40
2022-09-03T07:40:14.337Z,0.45
2022-09-03T07:42:43.819Z,0.20
2022-09-03T07:45:13.749Z,0.30
2022-09-03T07:47:50.520Z,0.68
2022-09-03T07:50:21.426Z,0.40
2022-09-03T07:52:51.016Z,0.70
2022-09-03T07:55:20.377Z,0.45
2022-09-03T07:57:49.695Z,0.55
2022-09-03T08:00:19.418Z,0.28
2022-09-03T08:02:48.808Z,0.52
2022-09-03T08:05:19.478Z,0.50
2022-09-03T08:07:51.300Z,0.30
2022-09-03T08:10:21.673Z,0.60
2022-09-03T08:12:51.688Z,0.30
2022-09-03T08:15:21.077Z,0.40
2022-09-03T08:17:50.574Z,0.50
2022-09-03T08:20:20.994Z,0.30
2022-09-03T08:22:51.810Z,0.43
2022-09-03T08:25:21.898Z,0.30
2022-09-03T08:27:51.255Z,0.32
2022-09-03T08:30:21.865Z,0.47
2022-09-03T08:32:51.565Z,0.30
2022-09-03T08:35:21.838Z,0.45
2022-09-03T08:37:56.829Z,0.20
2022-09-03T08:40:27.190Z,0.40
2022-09-03T08:43:09.749Z,0.47
2022-09-03T08:45:39.796Z,0.32
2022-09-03T08:48:15.311Z,0.20
2022-09-03T08:50:50.361Z,0.45
2022-09-03T08:53:27.213Z,0.30
2022-09-03T08:56:04.641Z,0.30
2022-09-03T08:58:38.598Z,0.30
2022-09-03T09:01:17.777Z,0.30
2022-09-03T09:03:55.298Z,0.30
2022-09-03T09:06:34.736Z,0.20
2022-09-03T09:09:15.277Z,0.20
2022-09-03T09:14:32.494Z,0.50
2022-09-03T09:17:10.280Z,0.40
2022-09-03T09:19:48.966Z,0.30
2022-09-03T09:22:29.142Z,0.80
2022-09-03T09:25:03.919Z,0.38
2022-09-03T09:27:34.970Z,0.30
2022-09-03T09:30:07.717Z,0.45
2022-09-03T09:32:38.713Z,0.20
2022-09-03T09:35:11.722Z,0.30
2022-09-03T09:37:50.326Z,0.32
2022-09-03T09:40:33.409Z,0.30
2022-09-03T09:43:16.297Z,0.45
2022-09-03T09:45:47.357Z,0.50
2022-09-03T09:48:23.998Z,0.20
2022-09-03T09:51:07.231Z,0.40
2022-09-03T09:53:37.653Z,0.50
2022-09-03T09:56:10.053Z,0.30
2022-09-03T09:58:40.338Z,0.75
2022-09-03T10:01:14.895Z,1.23
2022-09-03T10:03:55.602Z,0.28
2022-09-03T10:06:44.478Z,0.60
2022-09-03T10:09:17.369Z,0.90
2022-09-03T10:11:52.350Z,1.45
2022-09-03T10:14:27.468Z,0.55
2022-09-03T10:17:04.302Z,0.55
2022-09-03T10:19:43.246Z,0.73
2022-09-03T10:22:20.636Z,2.05
2022-09-03T10:25:00.704Z,0.98
2022-09-03T10:27:32.011Z,0.60
2022-09-03T10:30:03.118Z,0.70
2022-09-03T10:32:47.685Z,0.40
2022-09-03T10:35:28.648Z,0.50
2022-09-03T10:38:06.694Z,0.50
2022-09-03T10:40:41.286Z,0.60
2022-09-03T10:43:38.834Z,0.30
2022-09-03T10:46:13.435Z,0.43
2022-09-03T10:48:57.989Z,0.60
2022-09-03T10:51:34.316Z,0.50
2022-09-03T10:54:27.092Z,0.28
2022-09-03T10:57:05.477Z,0.25
2022-09-03T10:59:51.485Z,0.30
2022-09-03T11:02:38.023Z,0.30
2022-09-03T11:05:11.081Z,0.32
2022-09-03T11:07:44.683Z,0.30
2022-09-03T11:10:18.800Z,0.20
2022-09-03T11:12:56.676Z,0.30
2022-09-03T11:15:32.878Z,0.20
2022-09-03T11:18:09.984Z,0.50
2022-09-03T11:20:42.490Z,0.20
2022-09-03T11:23:15.241Z,0.38
2022-09-03T11:25:49.225Z,0.40
2022-09-03T11:28:28.981Z,0.40
2022-09-03T11:31:14.057Z,0.20
2022-09-03T11:33:48.021Z,0.30
2022-09-03T11:36:29.074Z,0.60
2022-09-03T11:41:29.642Z,0.60
2022-09-03T11:44:03.909Z,1.70
2022-09-03T11:46:35.848Z,1.83
2022-09-03T11:49:13.726Z,0.88
2022-09-03T11:51:45.295Z,1.15
2022-09-03T11:54:27.842Z,1.05
2022-09-03T11:57:14.194Z,0.95
2022-09-03T11:59:45.662Z,1.77
2022-09-03T12:02:29.520Z,0.40
2022-09-03T12:05:14.639Z,0.57
2022-09-03T12:07:56.530Z,0.20
2022-09-03T12:10:37.261Z,0.30
2022-09-03T12:13:25.292Z,0.20
2022-09-03T12:16:29.137Z,0.73
2022-09-03T12:19:06.397Z,0.30
2022-09-03T12:21:42.846Z,0.25
2022-09-03T12:24:15.680Z,0.47
2022-09-03T12:26:45.777Z,0.30
2022-09-03T12:29:27.957Z,0.20
2022-09-03T12:31:58.954Z,0.20
2022-09-03T12:34:34.191Z,0.30
2022-09-03T12:37:03.822Z,0.25
2022-09-03T12:42:27.564Z,0.50
2022-09-03T12:44:57.345Z,0.10
2022-09-03T12:47:36.480Z,0.20
2022-09-03T12:50:11.527Z,0.10
2022-09-03T12:52:43.633Z,0.20
2022-09-03T12:55:28.085Z,0.10
2022-09-03T12:58:02.801Z,0.20
2022-09-03T13:00:35.443Z,0.35
2022-09-03T13:03:09.119Z,0.30
2022-09-03T13:05:47.220Z,0.10
2022-09-03T13:08:20.381Z,0.17
2022-09-03T13:10:55.201Z,0.20
2022-09-03T13:13:27.367Z,0.15
2022-09-03T13:16:20.745Z,0.10
2022-09-03T13:18:56.289Z,0.65
2022-09-03T13:21:35.778Z,0.10
2022-09-03T13:24:21.512Z,0.22
2022-09-03T13:27:01.164Z,0.70
2022-09-03T13:29:49.667Z,0.57
2022-09-03T13:32:34.308Z,0.20
2022-09-03T13:35:15.213Z,0.20
2022-09-03T13:37:51.026Z,0.25
2022-09-03T13:40:26.120Z,0.20
2022-09-03T13:43:03.004Z,0.50
2022-09-03T13:45:39.895Z,0.63
2022-09-03T13:48:32.722Z,0.35
2022-09-03T13:51:10.522Z,0.88
2022-09-03T13:53:50.809Z,0.50
2022-09-03T13:56:27.796Z,0.47
2022-09-03T13:59:03.828Z,0.40
2022-09-03T14:01:48.027Z,0.40
2022-09-03T14:04:24.521Z,1.60
2022-09-03T14:07:02.425Z,3.22
2022-09-03T14:09:41.645Z,2.38
2022-09-03T14:12:18.857Z,13.13
2022-09-03T14:14:57.094Z,1.08
2022-09-03T14:17:38.465Z,1.27
2022-09-03T14:20:13.857Z,0.40
2022-09-03T14:22:53.564Z,0.40
2022-09-03T14:25:27.225Z,0.40
2022-09-03T14:27:57.897Z,0.52
2022-09-03T14:30:39.789Z,0.50
2022-09-03T14:33:18.593Z,0.32
2022-09-03T14:36:00.558Z,0.32
2022-09-03T14:38:59.818Z,0.40
2022-09-03T14:41:56.054Z,0.20
2022-09-03T14:44:47.994Z,0.20
2022-09-03T14:47:32.645Z,0.47
2022-09-03T14:50:24.390Z,0.38
2022-09-03T14:53:23.273Z,0.50
2022-09-03T14:56:05.583Z,0.40
2022-09-03T14:58:54.553Z,0.22
2022-09-03T15:01:37.619Z,0.40
2022-09-03T15:04:31.577Z,0.45
2022-09-03T15:07:28.043Z,0.40
2022-09-03T15:10:14.028Z,0.20
2022-09-03T15:12:48.450Z,0.50
2022-09-03T15:15:25.037Z,0.50
2022-09-03T15:18:09.240Z,0.50
2022-09-03T15:20:51.382Z,0.47
2022-09-03T15:23:42.746Z,0.30
2022-09-03T15:26:28.010Z,0.30
2022-09-03T15:29:11.680Z,0.30
2022-09-03T15:31:52.299Z,0.25
2022-09-03T15:37:10.229Z,0.20
2022-09-03T15:39:44.786Z,0.52
2022-09-03T15:42:24.199Z,0.30
2022-09-03T15:44:56.604Z,0.82
2022-09-03T15:47:52.843Z,0.30
2022-09-03T15:50:38.681Z,0.30
2022-09-03T15:53:25.710Z,0.30
2022-09-03T15:56:16.721Z,0.40
2022-09-03T15:58:54.483Z,0.55
2022-09-03T16:01:32.671Z,0.40
2022-09-03T16:04:13.518Z,0.73
2022-09-03T16:06:54.167Z,1.52
2022-09-03T16:09:42.619Z,0.30
2022-09-03T16:12:23.405Z,0.32
2022-09-03T16:15:00.478Z,0.40
2022-09-03T16:17:35.799Z,0.73
2022-09-03T16:20:11.750Z,0.30
2022-09-03T16:22:48.738Z,0.60
2022-09-03T16:25:25.434Z,0.40
2022-09-03T16:28:07.621Z,0.45
2022-09-03T16:30:54.206Z,0.40
2022-09-03T16:33:33.911Z,0.40
2022-09-03T16:36:18.225Z,0.27
2022-09-03T16:38:55.348Z,0.40
2022-09-03T16:41:31.041Z,0.57
2022-09-03T16:44:11.097Z,0.50
2022-09-03T16:46:49.502Z,0.52
2022-09-03T16:49:37.370Z,0.65
2022-09-03T16:52:18.713Z,0.60
2022-09-03T16:55:05.436Z,0.40
2022-09-03T16:57:54.694Z,0.77
2022-09-03T17:00:24.403Z,0.30
2022-09-03T17:03:28.680Z,0.50
2022-09-03T17:06:28.761Z,0.47
2022-09-03T17:09:09.788Z,0.30
2022-09-03T17:11:52.746Z,0.30
2022-09-03T17:14:47.895Z,0.45
2022-09-03T17:17:27.345Z,0.57
2022-09-03T17:20:05.775Z,0.47
2022-09-03T17:22:46.772Z,0.50
2022-09-03T17:25:29.302Z,0.47
2022-09-03T17:28:22.784Z,0.43
2022-09-03T17:30:59.789Z,0.80
2022-09-03T17:33:54.397Z,0.55
2022-09-03T17:36:27.522Z,0.60
2022-09-03T17:39:32.944Z,0.70
2022-09-03T17:42:13.766Z,0.90
2022-09-03T17:44:59.781Z,1.20
2022-09-03T17:47:52.894Z,0.60
2022-09-03T17:50:26.153Z,1.00
2022-09-03T17:53:00.229Z,1.25
2022-09-03T17:55:35.655Z,1.38
2022-09-03T17:58:13.074Z,1.15
2022-09-03T18:00:53.170Z,1.48
2022-09-03T18:03:30.703Z,0.88
2022-09-03T18:06:02.386Z,1.20
2022-09-03T18:08:45.270Z,1.88
2022-09-03T18:11:20.546Z,1.90
2022-09-03T18:13:59.518Z,1.70
2022-09-03T18:16:30.569Z,1.67
2022-09-03T18:19:05.610Z,1.10
2022-09-03T18:21:56.461Z,1.35
2022-09-03T18:24:50.756Z,1.70
2022-09-03T18:27:42.996Z,1.38
2022-09-03T18:30:34.414Z,1.50
2022-09-03T18:36:07.689Z,2.42
2022-09-03T18:38:56.581Z,1.60
2022-09-03T18:42:14.178Z,1.80
2022-09-03T18:45:21.449Z,2.15
2022-09-03T18:48:23.656Z,1.85
2022-09-03T18:51:16.958Z,1.70
2022-09-03T18:54:12.772Z,1.65
2022-09-03T18:57:05.445Z,1.88
2022-09-03T19:00:13.896Z,2.30
2022-09-03T19:03:13.261Z,1.98
2022-09-03T19:06:20.390Z,1.85
2022-09-03T19:09:16.638Z,2.80
2022-09-03T19:12:14.669Z,1.90
2022-09-03T19:15:12.608Z,1.20
2022-09-03T19:18:18.974Z,1.85
2022-09-03T19:21:16.326Z,1.75
2022-09-03T19:24:03.378Z,1.83
2022-09-03T19:27:02.909Z,2.10
2022-09-03T19:30:08.625Z,1.90
2022-09-03T19:33:05.393Z,1.77
2022-09-03T19:36:05.062Z,1.95
2022-09-03T19:39:07.169Z,2.42
2022-09-03T19:42:02.361Z,1.83
2022-09-03T19:45:07.551Z,1.60
2022-09-03T19:48:06.098Z,2.58
2022-09-03T19:50:57.705Z,2.25
2022-09-03T19:53:45.982Z,1.98
2022-09-03T19:56:43.855Z,1.73
2022-09-03T19:59:36.821Z,2.95
2022-09-03T20:02:23.568Z,2.40
2022-09-03T20:05:16.656Z,2.00
2022-09-03T20:08:04.475Z,1.92
2022-09-03T20:10:36.603Z,1.88
2022-09-03T20:13:11.720Z,2.08
2022-09-03T20:15:50.664Z,2.03
2022-09-03T20:18:32.281Z,2.13
2022-09-03T20:21:12.354Z,2.55
2022-09-03T20:23:49.247Z,3.08
2022-09-03T20:26:33.978Z,3.70
2022-09-03T20:29:27.264Z,3.10
2022-09-03T20:32:07.791Z,2.88
2022-09-03T20:34:45.861Z,2.50
2022-09-03T20:37:25.618Z,2.90
2022-09-03T20:40:10.456Z,3.97
2022-09-03T20:43:00.698Z,3.17
2022-09-03T20:45:45.766Z,3.33
2022-09-03T20:48:23.995Z,3.72
2022-09-03T20:51:01.463Z,3.22
2022-09-03T20:54:03.961Z,2.83
2022-09-03T20:56:48.313Z,2.92
2022-09-03T20:59:29.706Z,2.78
2022-09-03T21:02:09.406Z,2.83
2022-09-03T21:04:53.264Z,2.35
2022-09-03T21:07:39.965Z,2.45
2022-09-03T21:10:18.406Z,3.25
2022-09-03T21:12:55.848Z,2.55
2022-09-03T21:15:34.362Z,2.67
2022-09-03T21:18:15.041Z,2.88
2022-09-03T21:23:23.677Z,2.33
2022-09-03T21:25:58.831Z,1.95
2022-09-03T21:28:37.581Z,2.03
2022-09-03T21:31:14.739Z,2.75
2022-09-03T21:33:50.499Z,2.30
2022-09-03T21:36:30.510Z,2.28
2022-09-03T21:39:10.997Z,1.98
2022-09-03T21:41:49.832Z,2.22
2022-09-03T21:44:23.903Z,2.10
2022-09-03T21:46:58.222Z,2.20
2022-09-03T21:49:34.189Z,2.17
2022-09-03T21:52:09.484Z,2.00
2022-09-03T21:54:39.356Z,1.80
2022-09-03T21:57:22.255Z,2.00
2022-09-03T22:00:18.121Z,3.42
2022-09-03T22:02:49.017Z,2.60
2022-09-03T22:05:20.769Z,1.90
2022-09-03T22:08:09.530Z,1.80
2022-09-03T22:10:52.238Z,1.45
2022-09-03T22:13:30.029Z,2.13
2022-09-03T22:16:04.634Z,2.20
2022-09-03T22:18:38.208Z,1.67
2022-09-03T22:21:19.444Z,2.05
2022-09-03T22:24:07.653Z,1.60
2022-09-03T22:26:45.922Z,1.73
2022-09-03T22:29:24.645Z,2.15
2022-09-03T22:31:59.710Z,1.73
2022-09-03T22:35:03.065Z,2.22
2022-09-03T22:37:52.606Z,1.50
2022-09-03T22:40:28.004Z,1.58
2022-09-03T22:43:08.810Z,1.60
2022-09-03T22:46:02.146Z,1.35
2022-09-03T22:48:57.761Z,1.60
2022-09-03T22:51:29.622Z,1.58
2022-09-03T22:54:14.952Z,1.50
2022-09-03T22:56:44.981Z,2.08
2022-09-03T22:59:19.829Z,1.75
2022-09-03T23:01:58.308Z,1.60
2022-09-03T23:04:31.659Z,1.52
2022-09-03T23:07:11.742Z,1.45
2022-09-03T23:09:46.044Z,1.20
2022-09-03T23:12:20.554Z,1.08
2022-09-03T23:14:54.575Z,1.00
2022-09-03T23:22:39.163Z,1.38
2022-09-03T23:25:15.157Z,1.88
2022-09-03T23:27:49.582Z,1.48
2022-09-03T23:30:19.258Z,1.30
2022-09-03T23:32:52.834Z,1.20
2022-09-03T23:35:26.576Z,1.00
2022-09-03T23:38:11.657Z,1.20
2022-09-03T23:40:49.603Z,1.02
2022-09-03T23:44:00.238Z,0.90
2022-09-03T23:46:36.101Z,1.20
2022-09-03T23:49:17.984Z,1.42
2022-09-03T23:52:02.310Z,1.27
2022-09-03T23:54:38.816Z,1.35
2022-09-03T23:57:19.916Z,1.40
